sensor_id;sensor_type;location;lat;lon;timestamp;P1;durP1;ratioP1;P2;durP2;ratioP2
12363;SDS011;6246;50.826;4.712;2022-11-15T00:01:44;14.03;;;10.87;;
12363;SDS011;6246;50.826;4.712;2022-11-15T00:04:10;14.73;;;9.57;;
12363;SDS011;6246;50.826;4.712;2022-11-15T00:06:36;13.60;;;10.20;;
12363;SDS011;6246;50.826;4.712;2022-11-15T00:09:02;12.20;;;10.20;;
12363;SDS011;6246;50.826;4.712;2022-11-15T00:11:28;16.27;;;10.50;;
12363;SDS011;6246;50.826;4.712;2022-11-15T00:13:55;13.47;;;9.60;;
12363;SDS011;6246;50.826;4.712;2022-11-15T00:16:21;14.03;;;10.23;;
12363;SDS011;6246;50.826;4.712;2022-11-15T00:18:47;20.33;;;9.97;;
12363;SDS011;6246;50.826;4.712;2022-11-15T00:21:14;15.70;;;9.87;;
12363;SDS011;6246;50.826;4.712;2022-11-15T00:23:40;15.77;;;10.03;;
12363;SDS011;6246;50.826;4.712;2022-11-15T00:26:06;12.23;;;10.10;;
12363;SDS011;6246;50.826;4.712;2022-11-15T00:28:33;11.80;;;10.43;;
12363;SDS011;6246;50.826;4.712;2022-11-15T00:31:03;14.27;;;10.50;;
12363;SDS011;6246;50.826;4.712;2022-11-15T00:33:29;12.83;;;10.10;;
12363;SDS011;6246;50.826;4.712;2022-11-15T00:35:59;11.60;;;9.70;;
12363;SDS011;6246;50.826;4.712;2022-11-15T00:38:29;11.43;;;10.00;;
12363;SDS011;6246;50.826;4.712;2022-11-15T00:40:55;12.00;;;9.83;;
12363;SDS011;6246;50.826;4.712;2022-11-15T00:43:21;12.70;;;9.63;;
12363;SDS011;6246;50.826;4.712;2022-11-15T00:45:47;13.27;;;10.33;;
12363;SDS011;6246;50.826;4.712;2022-11-15T00:48:13;12.20;;;9.87;;
12363;SDS011;6246;50.826;4.712;2022-11-15T00:50:39;12.43;;;9.93;;
12363;SDS011;6246;50.826;4.712;2022-11-15T00:53:05;11.63;;;9.50;;
12363;SDS011;6246;50.826;4.712;2022-11-15T00:55:31;12.43;;;10.57;;
12363;SDS011;6246;50.826;4.712;2022-11-15T00:57:57;12.70;;;10.00;;
12363;SDS011;6246;50.826;4.712;2022-11-15T01:00:23;14.57;;;10.50;;
12363;SDS011;6246;50.826;4.712;2022-11-15T01:02:49;11.53;;;9.93;;
12363;SDS011;6246;50.826;4.712;2022-11-15T01:05:15;18.47;;;10.30;;
12363;SDS011;6246;50.826;4.712;2022-11-15T01:07:41;11.80;;;9.40;;
12363;SDS011;6246;50.826;4.712;2022-11-15T01:10:07;11.53;;;10.13;;
12363;SDS011;6246;50.826;4.712;2022-11-15T01:12:34;12.10;;;10.10;;
12363;SDS011;6246;50.826;4.712;2022-11-15T01:15:00;11.83;;;10.20;;
12363;SDS011;6246;50.826;4.712;2022-11-15T01:17:26;11.43;;;9.80;;
12363;SDS011;6246;50.826;4.712;2022-11-15T01:19:52;11.60;;;9.17;;
12363;SDS011;6246;50.826;4.712;2022-11-15T01:22:18;12.30;;;10.07;;
12363;SDS011;6246;50.826;4.712;2022-11-15T01:24:44;12.63;;;10.57;;
12363;SDS011;6246;50.826;4.712;2022-11-15T01:27:10;11.53;;;9.47;;
12363;SDS011;6246;50.826;4.712;2022-11-15T01:29:36;11.43;;;10.07;;
12363;SDS011;6246;50.826;4.712;2022-11-15T01:32:02;12.90;;;10.00;;
12363;SDS011;6246;50.826;4.712;2022-11-15T01:34:28;13.87;;;9.47;;
12363;SDS011;6246;50.826;4.712;2022-11-15T01:36:54;12.00;;;9.43;;
12363;SDS011;6246;50.826;4.712;2022-11-15T01:39:20;12.43;;;9.57;;
12363;SDS011;6246;50.826;4.712;2022-11-15T01:41:46;13.13;;;9.10;;
12363;SDS011;6246;50.826;4.712;2022-11-15T01:46:57;12.00;;;10.03;;
12363;SDS011;6246;50.826;4.712;2022-11-15T01:49:24;13.87;;;9.23;;
12363;SDS011;6246;50.826;4.712;2022-11-15T01:51:50;13.90;;;9.83;;
12363;SDS011;6246;50.826;4.712;2022-11-15T01:54:19;12.27;;;9.17;;
12363;SDS011;6246;50.826;4.712;2022-11-15T01:56:47;11.37;;;8.73;;
12363;SDS011;6246;50.826;4.712;2022-11-15T01:59:16;15.07;;;9.60;;
12363;SDS011;6246;50.826;4.712;2022-11-15T02:01:42;11.13;;;8.80;;
12363;SDS011;6246;50.826;4.712;2022-11-15T02:04:13;11.17;;;9.43;;
12363;SDS011;6246;50.826;4.712;2022-11-15T02:06:40;11.07;;;9.50;;
12363;SDS011;6246;50.826;4.712;2022-11-15T02:09:06;16.03;;;9.53;;
12363;SDS011;6246;50.826;4.712;2022-11-15T02:11:32;11.80;;;9.10;;
12363;SDS011;6246;50.826;4.712;2022-11-15T02:13:59;10.27;;;8.80;;
12363;SDS011;6246;50.826;4.712;2022-11-15T02:19:35;12.60;;;9.20;;
12363;SDS011;6246;50.826;4.712;2022-11-15T02:22:13;12.90;;;8.93;;
12363;SDS011;6246;50.826;4.712;2022-11-15T02:24:48;10.57;;;8.70;;
12363;SDS011;6246;50.826;4.712;2022-11-15T02:30:04;12.40;;;9.37;;
12363;SDS011;6246;50.826;4.712;2022-11-15T02:32:44;10.30;;;8.50;;
12363;SDS011;6246;50.826;4.712;2022-11-15T02:35:14;11.80;;;9.30;;
12363;SDS011;6246;50.826;4.712;2022-11-15T02:37:50;10.07;;;8.77;;
12363;SDS011;6246;50.826;4.712;2022-11-15T02:42:49;9.83;;;8.83;;
12363;SDS011;6246;50.826;4.712;2022-11-15T02:45:36;9.30;;;8.30;;
12363;SDS011;6246;50.826;4.712;2022-11-15T02:48:04;9.20;;;7.83;;
12363;SDS011;6246;50.826;4.712;2022-11-15T02:50:32;11.00;;;8.83;;
12363;SDS011;6246;50.826;4.712;2022-11-15T02:52:58;12.00;;;8.60;;
12363;SDS011;6246;50.826;4.712;2022-11-15T02:55:28;11.63;;;8.63;;
12363;SDS011;6246;50.826;4.712;2022-11-15T03:00:23;13.77;;;8.20;;
12363;SDS011;6246;50.826;4.712;2022-11-15T03:05:40;10.53;;;8.57;;
12363;SDS011;6246;50.826;4.712;2022-11-15T03:10:42;11.10;;;8.40;;
12363;SDS011;6246;50.826;4.712;2022-11-15T03:13:21;9.90;;;8.33;;
12363;SDS011;6246;50.826;4.712;2022-11-15T03:15:56;9.30;;;8.10;;
12363;SDS011;6246;50.826;4.712;2022-11-15T03:18:30;11.63;;;8.30;;
12363;SDS011;6246;50.826;4.712;2022-11-15T03:20:58;9.20;;;7.60;;
12363;SDS011;6246;50.826;4.712;2022-11-15T03:23:25;10.80;;;8.57;;
12363;SDS011;6246;50.826;4.712;2022-11-15T03:25:52;9.10;;;8.00;;
12363;SDS011;6246;50.826;4.712;2022-11-15T03:28:21;9.20;;;7.93;;
12363;SDS011;6246;50.826;4.712;2022-11-15T03:30:48;9.27;;;7.60;;
12363;SDS011;6246;50.826;4.712;2022-11-15T03:33:15;8.27;;;7.33;;
12363;SDS011;6246;50.826;4.712;2022-11-15T03:35:42;10.23;;;7.80;;
12363;SDS011;6246;50.826;4.712;2022-11-15T03:38:24;9.93;;;8.20;;
12363;SDS011;6246;50.826;4.712;2022-11-15T03:41:01;8.33;;;7.43;;
12363;SDS011;6246;50.826;4.712;2022-11-15T03:48:52;12.80;;;7.90;;
12363;SDS011;6246;50.826;4.712;2022-11-15T03:51:19;10.47;;;7.50;;
12363;SDS011;6246;50.826;4.712;2022-11-15T03:53:45;11.63;;;7.43;;
12363;SDS011;6246;50.826;4.712;2022-11-15T03:56:11;8.60;;;7.60;;
12363;SDS011;6246;50.826;4.712;2022-11-15T03:58:37;13.33;;;8.03;;
12363;SDS011;6246;50.826;4.712;2022-11-15T04:01:03;11.50;;;7.57;;
12363;SDS011;6246;50.826;4.712;2022-11-15T04:03:29;10.57;;;7.63;;
12363;SDS011;6246;50.826;4.712;2022-11-15T04:05:55;9.90;;;8.07;;
12363;SDS011;6246;50.826;4.712;2022-11-15T04:08:21;11.77;;;7.13;;
12363;SDS011;6246;50.826;4.712;2022-11-15T04:10:51;10.50;;;7.73;;
12363;SDS011;6246;50.826;4.712;2022-11-15T04:13:17;11.10;;;7.37;;
12363;SDS011;6246;50.826;4.712;2022-11-15T04:15:43;10.77;;;7.23;;
12363;SDS011;6246;50.826;4.712;2022-11-15T04:18:09;11.83;;;7.50;;
12363;SDS011;6246;50.826;4.712;2022-11-15T04:20:35;10.00;;;7.13;;
12363;SDS011;6246;50.826;4.712;2022-11-15T04:23:20;9.67;;;7.20;;
12363;SDS011;6246;50.826;4.712;2022-11-15T04:26:05;8.90;;;7.20;;
12363;SDS011;6246;50.826;4.712;2022-11-15T04:28:33;11.33;;;7.03;;
12363;SDS011;6246;50.826;4.712;2022-11-15T04:30:59;10.83;;;7.33;;
12363;SDS011;6246;50.826;4.712;2022-11-15T04:33:25;8.90;;;7.10;;
12363;SDS011;6246;50.826;4.712;2022-11-15T04:35:51;8.93;;;6.80;;
12363;SDS011;6246;50.826;4.712;2022-11-15T04:38:36;8.17;;;6.90;;
12363;SDS011;6246;50.826;4.712;2022-11-15T04:41:02;7.40;;;6.60;;
12363;SDS011;6246;50.826;4.712;2022-11-15T04:43:28;9.23;;;7.20;;
12363;SDS011;6246;50.826;4.712;2022-11-15T04:45:55;12.80;;;7.47;;
12363;SDS011;6246;50.826;4.712;2022-11-15T04:48:21;9.33;;;6.67;;
12363;SDS011;6246;50.826;4.712;2022-11-15T04:50:47;8.47;;;6.83;;
12363;SDS011;6246;50.826;4.712;2022-11-15T04:53:14;9.27;;;6.97;;
12363;SDS011;6246;50.826;4.712;2022-11-15T04:55:39;9.57;;;6.70;;
12363;SDS011;6246;50.826;4.712;2022-11-15T04:58:05;9.07;;;6.77;;
12363;SDS011;6246;50.826;4.712;2022-11-15T05:00:31;8.30;;;6.80;;
12363;SDS011;6246;50.826;4.712;2022-11-15T05:02:57;8.47;;;7.03;;
12363;SDS011;6246;50.826;4.712;2022-11-15T05:05:42;8.70;;;6.57;;
12363;SDS011;6246;50.826;4.712;2022-11-15T05:08:08;8.73;;;7.00;;
12363;SDS011;6246;50.826;4.712;2022-11-15T05:10:34;9.80;;;6.43;;
12363;SDS011;6246;50.826;4.712;2022-11-15T05:13:00;7.17;;;6.17;;
12363;SDS011;6246;50.826;4.712;2022-11-15T05:15:26;8.80;;;7.23;;
12363;SDS011;6246;50.826;4.712;2022-11-15T05:17:56;7.90;;;6.77;;
12363;SDS011;6246;50.826;4.712;2022-11-15T05:20:22;8.27;;;6.73;;
12363;SDS011;6246;50.826;4.712;2022-11-15T05:22:48;7.57;;;6.37;;
12363;SDS011;6246;50.826;4.712;2022-11-15T05:25:14;9.80;;;6.73;;
12363;SDS011;6246;50.826;4.712;2022-11-15T05:27:40;8.80;;;6.60;;
12363;SDS011;6246;50.826;4.712;2022-11-15T05:30:06;8.07;;;6.43;;
12363;SDS011;6246;50.826;4.712;2022-11-15T05:32:33;7.80;;;6.57;;
12363;SDS011;6246;50.826;4.712;2022-11-15T05:34:59;7.83;;;5.87;;
12363;SDS011;6246;50.826;4.712;2022-11-15T05:37:24;7.77;;;6.23;;
12363;SDS011;6246;50.826;4.712;2022-11-15T05:39:50;9.40;;;6.30;;
12363;SDS011;6246;50.826;4.712;2022-11-15T05:42:17;7.37;;;6.23;;
12363;SDS011;6246;50.826;4.712;2022-11-15T05:44:44;10.00;;;6.20;;
12363;SDS011;6246;50.826;4.712;2022-11-15T05:47:12;6.87;;;5.97;;
12363;SDS011;6246;50.826;4.712;2022-11-15T05:49:39;6.33;;;5.63;;
12363;SDS011;6246;50.826;4.712;2022-11-15T05:52:06;7.87;;;5.90;;
12363;SDS011;6246;50.826;4.712;2022-11-15T05:54:33;7.33;;;5.87;;
12363;SDS011;6246;50.826;4.712;2022-11-15T05:56:59;7.03;;;6.07;;
12363;SDS011;6246;50.826;4.712;2022-11-15T05:59:27;6.80;;;6.10;;
12363;SDS011;6246;50.826;4.712;2022-11-15T06:01:53;7.27;;;5.47;;
12363;SDS011;6246;50.826;4.712;2022-11-15T06:04:19;7.30;;;5.97;;
12363;SDS011;6246;50.826;4.712;2022-11-15T06:06:45;6.13;;;5.53;;
12363;SDS011;6246;50.826;4.712;2022-11-15T06:09:11;5.90;;;5.20;;
12363;SDS011;6246;50.826;4.712;2022-11-15T06:11:37;8.03;;;5.87;;
12363;SDS011;6246;50.826;4.712;2022-11-15T06:14:03;6.17;;;5.37;;
12363;SDS011;6246;50.826;4.712;2022-11-15T06:16:29;6.77;;;5.47;;
12363;SDS011;6246;50.826;4.712;2022-11-15T06:18:55;6.83;;;5.77;;
12363;SDS011;6246;50.826;4.712;2022-11-15T06:21:21;6.40;;;5.70;;
12363;SDS011;6246;50.826;4.712;2022-11-15T06:23:47;6.03;;;5.43;;
12363;SDS011;6246;50.826;4.712;2022-11-15T06:26:14;6.13;;;5.37;;
12363;SDS011;6246;50.826;4.712;2022-11-15T06:28:40;5.80;;;5.27;;
12363;SDS011;6246;50.826;4.712;2022-11-15T06:31:06;5.80;;;5.20;;
12363;SDS011;6246;50.826;4.712;2022-11-15T06:33:32;9.03;;;5.53;;
12363;SDS011;6246;50.826;4.712;2022-11-15T06:36:02;6.57;;;5.47;;
12363;SDS011;6246;50.826;4.712;2022-11-15T06:38:28;6.57;;;5.40;;
12363;SDS011;6246;50.826;4.712;2022-11-15T06:40:54;5.63;;;4.90;;
12363;SDS011;6246;50.826;4.712;2022-11-15T06:43:21;6.67;;;5.23;;
12363;SDS011;6246;50.826;4.712;2022-11-15T06:45:46;5.43;;;4.80;;
12363;SDS011;6246;50.826;4.712;2022-11-15T06:48:13;6.13;;;5.30;;
12363;SDS011;6246;50.826;4.712;2022-11-15T06:50:39;5.50;;;5.00;;
12363;SDS011;6246;50.826;4.712;2022-11-15T06:53:05;5.67;;;5.07;;
12363;SDS011;6246;50.826;4.712;2022-11-15T06:55:31;5.83;;;4.73;;
12363;SDS011;6246;50.826;4.712;2022-11-15T06:57:57;5.00;;;4.50;;
12363;SDS011;6246;50.826;4.712;2022-11-15T07:00:23;5.57;;;5.10;;
12363;SDS011;6246;50.826;4.712;2022-11-15T07:02:49;5.23;;;4.73;;
12363;SDS011;6246;50.826;4.712;2022-11-15T07:05:15;5.50;;;5.00;;
12363;SDS011;6246;50.826;4.712;2022-11-15T07:07:41;5.30;;;4.67;;
12363;SDS011;6246;50.826;4.712;2022-11-15T07:10:08;5.63;;;5.10;;
12363;SDS011;6246;50.826;4.712;2022-11-15T07:12:34;5.37;;;4.90;;
12363;SDS011;6246;50.826;4.712;2022-11-15T07:15:00;5.40;;;4.93;;
12363;SDS011;6246;50.826;4.712;2022-11-15T07:17:26;4.97;;;4.57;;
12363;SDS011;6246;50.826;4.712;2022-11-15T07:19:52;5.10;;;4.70;;
12363;SDS011;6246;50.826;4.712;2022-11-15T07:22:18;5.23;;;4.40;;
12363;SDS011;6246;50.826;4.712;2022-11-15T07:24:44;4.77;;;4.37;;
12363;SDS011;6246;50.826;4.712;2022-11-15T07:27:10;4.77;;;4.30;;
12363;SDS011;6246;50.826;4.712;2022-11-15T07:29:36;4.73;;;4.30;;
12363;SDS011;6246;50.826;4.712;2022-11-15T07:32:02;4.80;;;4.30;;
12363;SDS011;6246;50.826;4.712;2022-11-15T07:34:28;4.53;;;4.10;;
12363;SDS011;6246;50.826;4.712;2022-11-15T07:36:54;5.67;;;4.50;;
12363;SDS011;6246;50.826;4.712;2022-11-15T07:39:20;4.57;;;4.17;;
12363;SDS011;6246;50.826;4.712;2022-11-15T07:41:46;4.70;;;4.30;;
12363;SDS011;6246;50.826;4.712;2022-11-15T07:44:13;5.13;;;4.10;;
12363;SDS011;6246;50.826;4.712;2022-11-15T07:46:39;4.70;;;4.23;;
12363;SDS011;6246;50.826;4.712;2022-11-15T07:49:05;4.57;;;4.10;;
12363;SDS011;6246;50.826;4.712;2022-11-15T07:51:31;4.50;;;4.10;;
12363;SDS011;6246;50.826;4.712;2022-11-15T07:53:57;4.33;;;3.93;;
12363;SDS011;6246;50.826;4.712;2022-11-15T07:56:23;5.00;;;4.17;;
12363;SDS011;6246;50.826;4.712;2022-11-15T07:58:48;4.80;;;4.40;;
12363;SDS011;6246;50.826;4.712;2022-11-15T08:01:15;4.47;;;4.00;;
12363;SDS011;6246;50.826;4.712;2022-11-15T08:03:41;4.20;;;3.80;;
12363;SDS011;6246;50.826;4.712;2022-11-15T08:06:07;4.70;;;4.30;;
12363;SDS011;6246;50.826;4.712;2022-11-15T08:08:33;4.50;;;4.10;;
12363;SDS011;6246;50.826;4.712;2022-11-15T08:10:59;4.37;;;3.97;;
12363;SDS011;6246;50.826;4.712;2022-11-15T08:13:25;4.37;;;3.97;;
12363;SDS011;6246;50.826;4.712;2022-11-15T08:15:51;4.37;;;3.90;;
12363;SDS011;6246;50.826;4.712;2022-11-15T08:18:17;4.17;;;3.77;;
12363;SDS011;6246;50.826;4.712;2022-11-15T08:20:43;4.33;;;3.93;;
12363;SDS011;6246;50.826;4.712;2022-11-15T08:23:10;3.73;;;3.43;;
12363;SDS011;6246;50.826;4.712;2022-11-15T08:25:37;4.40;;;4.10;;
12363;SDS011;6246;50.826;4.712;2022-11-15T08:28:04;4.07;;;3.70;;
12363;SDS011;6246;50.826;4.712;2022-11-15T08:30:33;4.27;;;3.87;;
12363;SDS011;6246;50.826;4.712;2022-11-15T08:33:01;4.97;;;4.47;;
12363;SDS011;6246;50.826;4.712;2022-11-15T08:35:27;3.80;;;3.50;;
12363;SDS011;6246;50.826;4.712;2022-11-15T08:37:53;4.60;;;3.63;;
12363;SDS011;6246;50.826;4.712;2022-11-15T08:40:19;3.93;;;3.57;;
12363;SDS011;6246;50.826;4.712;2022-11-15T08:42:46;4.33;;;3.90;;
12363;SDS011;6246;50.826;4.712;2022-11-15T08:45:12;4.50;;;3.63;;
12363;SDS011;6246;50.826;4.712;2022-11-15T08:47:38;3.60;;;3.30;;
12363;SDS011;6246;50.826;4.712;2022-11-15T08:50:04;3.77;;;3.47;;
12363;SDS011;6246;50.826;4.712;2022-11-15T08:52:31;4.20;;;3.40;;
12363;SDS011;6246;50.826;4.712;2022-11-15T08:54:57;3.87;;;3.57;;
12363;SDS011;6246;50.826;4.712;2022-11-15T08:57:23;3.90;;;3.60;;
12363;SDS011;6246;50.826;4.712;2022-11-15T08:59:49;3.83;;;3.53;;
12363;SDS011;6246;50.826;4.712;2022-11-15T09:02:15;3.67;;;3.37;;
12363;SDS011;6246;50.826;4.712;2022-11-15T09:04:42;3.20;;;3.00;;
12363;SDS011;6246;50.826;4.712;2022-11-15T09:07:10;3.67;;;3.37;;
12363;SDS011;6246;50.826;4.712;2022-11-15T09:09:36;3.40;;;3.17;;
12363;SDS011;6246;50.826;4.712;2022-11-15T09:12:03;3.50;;;3.20;;
12363;SDS011;6246;50.826;4.712;2022-11-15T09:14:29;3.20;;;3.00;;
12363;SDS011;6246;50.826;4.712;2022-11-15T09:16:55;2.77;;;2.57;;
12363;SDS011;6246;50.826;4.712;2022-11-15T09:19:21;3.07;;;2.80;;
12363;SDS011;6246;50.826;4.712;2022-11-15T09:21:47;3.87;;;3.47;;
12363;SDS011;6246;50.826;4.712;2022-11-15T09:24:13;3.57;;;3.30;;
12363;SDS011;6246;50.826;4.712;2022-11-15T09:26:39;3.30;;;3.10;;
12363;SDS011;6246;50.826;4.712;2022-11-15T09:29:05;3.30;;;3.10;;
12363;SDS011;6246;50.826;4.712;2022-11-15T09:31:31;3.33;;;2.70;;
12363;SDS011;6246;50.826;4.712;2022-11-15T09:33:57;3.30;;;2.90;;
12363;SDS011;6246;50.826;4.712;2022-11-15T09:36:24;3.20;;;3.00;;
12363;SDS011;6246;50.826;4.712;2022-11-15T09:38:50;2.93;;;2.73;;
12363;SDS011;6246;50.826;4.712;2022-11-15T09:41:25;3.33;;;3.00;;
12363;SDS011;6246;50.826;4.712;2022-11-15T09:49:12;2.90;;;2.60;;
12363;SDS011;6246;50.826;4.712;2022-11-15T09:51:39;3.10;;;2.80;;
12363;SDS011;6246;50.826;4.712;2022-11-15T09:54:29;2.70;;;2.50;;
12363;SDS011;6246;50.826;4.712;2022-11-15T09:57:03;2.80;;;2.60;;
12363;SDS011;6246;50.826;4.712;2022-11-15T10:04:35;2.63;;;2.43;;
12363;SDS011;6246;50.826;4.712;2022-11-15T10:07:04;2.97;;;2.77;;
12363;SDS011;6246;50.826;4.712;2022-11-15T10:09:35;2.60;;;2.40;;
12363;SDS011;6246;50.826;4.712;2022-11-15T10:12:03;2.40;;;2.20;;
12363;SDS011;6246;50.826;4.712;2022-11-15T10:14:29;2.73;;;2.53;;
12363;SDS011;6246;50.826;4.712;2022-11-15T10:22:34;2.63;;;2.43;;
12363;SDS011;6246;50.826;4.712;2022-11-15T10:28:14;2.50;;;2.30;;
12363;SDS011;6246;50.826;4.712;2022-11-15T10:30:45;3.17;;;2.50;;
12363;SDS011;6246;50.826;4.712;2022-11-15T10:33:12;2.20;;;2.00;;
12363;SDS011;6246;50.826;4.712;2022-11-15T10:35:43;2.60;;;2.33;;
12363;SDS011;6246;50.826;4.712;2022-11-15T10:38:09;7.03;;;3.03;;
12363;SDS011;6246;50.826;4.712;2022-11-15T10:40:36;2.10;;;2.00;;
12363;SDS011;6246;50.826;4.712;2022-11-15T10:45:34;3.33;;;1.90;;
12363;SDS011;6246;50.826;4.712;2022-11-15T10:50:43;2.80;;;2.13;;
12363;SDS011;6246;50.826;4.712;2022-11-15T10:55:46;5.37;;;2.17;;
12363;SDS011;6246;50.826;4.712;2022-11-15T11:01:08;2.97;;;2.50;;
12363;SDS011;6246;50.826;4.712;2022-11-15T11:03:35;5.47;;;2.70;;
12363;SDS011;6246;50.826;4.712;2022-11-15T11:06:04;2.83;;;2.63;;
12363;SDS011;6246;50.826;4.712;2022-11-15T11:08:30;5.10;;;2.67;;
12363;SDS011;6246;50.826;4.712;2022-11-15T11:11:00;4.60;;;3.27;;
12363;SDS011;6246;50.826;4.712;2022-11-15T11:13:36;3.90;;;3.50;;
12363;SDS011;6246;50.826;4.712;2022-11-15T11:21:10;7.63;;;4.77;;
12363;SDS011;6246;50.826;4.712;2022-11-15T11:26:55;6.33;;;4.93;;
12363;SDS011;6246;50.826;4.712;2022-11-15T11:41:56;10.80;;;5.70;;
12363;SDS011;6246;50.826;4.712;2022-11-15T11:44:41;6.00;;;5.40;;
12363;SDS011;6246;50.826;4.712;2022-11-15T11:47:14;7.10;;;5.97;;
12363;SDS011;6246;50.826;4.712;2022-11-15T11:49:46;9.03;;;6.17;;
12363;SDS011;6246;50.826;4.712;2022-11-15T12:03:01;8.20;;;6.40;;
12363;SDS011;6246;50.826;4.712;2022-11-15T12:10:51;7.43;;;6.63;;
12363;SDS011;6246;50.826;4.712;2022-11-15T12:13:21;8.47;;;6.93;;
12363;SDS011;6246;50.826;4.712;2022-11-15T12:18:15;7.90;;;7.10;;
12363;SDS011;6246;50.826;4.712;2022-11-15T12:20:47;8.93;;;7.37;;
12363;SDS011;6246;50.826;4.712;2022-11-15T12:23:16;9.13;;;7.23;;
12363;SDS011;6246;50.826;4.712;2022-11-15T12:25:46;9.43;;;7.73;;
12363;SDS011;6246;50.826;4.712;2022-11-15T12:28:16;9.97;;;7.53;;
12363;SDS011;6246;50.826;4.712;2022-11-15T12:30:52;9.13;;;8.00;;
12363;SDS011;6246;50.826;4.712;2022-11-15T12:41:16;9.50;;;7.93;;
12363;SDS011;6246;50.826;4.712;2022-11-15T12:43:43;9.70;;;8.13;;
12363;SDS011;6246;50.826;4.712;2022-11-15T12:46:13;9.77;;;7.73;;
12363;SDS011;6246;50.826;4.712;2022-11-15T12:48:46;8.93;;;7.50;;
12363;SDS011;6246;50.826;4.712;2022-11-15T12:51:13;9.93;;;7.87;;
12363;SDS011;6246;50.826;4.712;2022-11-15T12:53:39;9.43;;;7.60;;
12363;SDS011;6246;50.826;4.712;2022-11-15T12:58:50;11.47;;;8.17;;
12363;SDS011;6246;50.826;4.712;2022-11-15T13:06:43;19.90;;;16.60;;
12363;SDS011;6246;50.826;4.712;2022-11-15T13:11:55;24.67;;;21.60;;
12363;SDS011;6246;50.826;4.712;2022-11-15T13:19:46;21.40;;;18.33;;
12363;SDS011;6246;50.826;4.712;2022-11-15T13:22:13;23.27;;;17.47;;
12363;SDS011;6246;50.826;4.712;2022-11-15T13:24:58;20.80;;;17.37;;
12363;SDS011;6246;50.826;4.712;2022-11-15T13:27:25;20.77;;;17.60;;
12363;SDS011;6246;50.826;4.712;2022-11-15T13:29:51;20.73;;;17.23;;
12363;SDS011;6246;50.826;4.712;2022-11-15T13:32:18;20.67;;;17.97;;
12363;SDS011;6246;50.826;4.712;2022-11-15T13:34:48;20.60;;;16.63;;
12363;SDS011;6246;50.826;4.712;2022-11-15T13:39:46;18.03;;;16.13;;
12363;SDS011;6246;50.826;4.712;2022-11-15T13:42:17;21.57;;;17.47;;
12363;SDS011;6246;50.826;4.712;2022-11-15T13:47:21;22.23;;;16.67;;
12363;SDS011;6246;50.826;4.712;2022-11-15T13:49:47;22.53;;;17.30;;
12363;SDS011;6246;50.826;4.712;2022-11-15T13:52:14;17.20;;;15.30;;
12363;SDS011;6246;50.826;4.712;2022-11-15T13:57:10;20.63;;;16.53;;
12363;SDS011;6246;50.826;4.712;2022-11-15T13:59:44;19.37;;;16.27;;
12363;SDS011;6246;50.826;4.712;2022-11-15T14:02:12;19.13;;;15.50;;
12363;SDS011;6246;50.826;4.712;2022-11-15T14:04:45;19.63;;;15.10;;
12363;SDS011;6246;50.826;4.712;2022-11-15T14:07:16;29.60;;;15.43;;
12363;SDS011;6246;50.826;4.712;2022-11-15T14:09:42;20.07;;;15.83;;
12363;SDS011;6246;50.826;4.712;2022-11-15T14:12:22;18.83;;;15.90;;
12363;SDS011;6246;50.826;4.712;2022-11-15T14:14:49;18.47;;;16.10;;
12363;SDS011;6246;50.826;4.712;2022-11-15T14:17:18;20.20;;;15.60;;
12363;SDS011;6246;50.826;4.712;2022-11-15T14:19:44;20.60;;;16.30;;
12363;SDS011;6246;50.826;4.712;2022-11-15T14:22:18;17.93;;;15.17;;
12363;SDS011;6246;50.826;4.712;2022-11-15T14:25:13;18.60;;;16.07;;
12363;SDS011;6246;50.826;4.712;2022-11-15T14:27:33;19.73;;;15.97;;
12363;SDS011;6246;50.826;4.712;2022-11-15T14:29:59;18.37;;;15.77;;
12363;SDS011;6246;50.826;4.712;2022-11-15T14:32:29;17.27;;;14.43;;
12363;SDS011;6246;50.826;4.712;2022-11-15T14:37:23;20.13;;;15.40;;
12363;SDS011;6246;50.826;4.712;2022-11-15T14:39:50;18.70;;;14.70;;
12363;SDS011;6246;50.826;4.712;2022-11-15T14:42:16;18.90;;;15.37;;
12363;SDS011;6246;50.826;4.712;2022-11-15T14:44:42;17.90;;;15.40;;
12363;SDS011;6246;50.826;4.712;2022-11-15T14:47:08;18.30;;;15.23;;
12363;SDS011;6246;50.826;4.712;2022-11-15T14:49:34;20.83;;;15.90;;
12363;SDS011;6246;50.826;4.712;2022-11-15T14:52:00;16.93;;;14.67;;
12363;SDS011;6246;50.826;4.712;2022-11-15T14:54:26;17.30;;;14.83;;
12363;SDS011;6246;50.826;4.712;2022-11-15T14:56:52;16.73;;;14.60;;
12363;SDS011;6246;50.826;4.712;2022-11-15T14:59:18;16.30;;;14.43;;
12363;SDS011;6246;50.826;4.712;2022-11-15T15:01:44;18.33;;;15.37;;
12363;SDS011;6246;50.826;4.712;2022-11-15T15:04:10;16.97;;;14.53;;
12363;SDS011;6246;50.826;4.712;2022-11-15T15:06:36;20.30;;;15.10;;
12363;SDS011;6246;50.826;4.712;2022-11-15T15:09:02;18.87;;;15.57;;
12363;SDS011;6246;50.826;4.712;2022-11-15T15:11:29;17.60;;;15.27;;
12363;SDS011;6246;50.826;4.712;2022-11-15T15:13:55;18.10;;;15.50;;
12363;SDS011;6246;50.826;4.712;2022-11-15T15:16:23;16.33;;;13.30;;
12363;SDS011;6246;50.826;4.712;2022-11-15T15:18:50;17.80;;;14.87;;
12363;SDS011;6246;50.826;4.712;2022-11-15T15:21:20;16.47;;;14.03;;
12363;SDS011;6246;50.826;4.712;2022-11-15T15:23:47;17.30;;;13.70;;
12363;SDS011;6246;50.826;4.712;2022-11-15T15:26:13;14.67;;;12.97;;
12363;SDS011;6246;50.826;4.712;2022-11-15T15:28:39;16.13;;;14.07;;
12363;SDS011;6246;50.826;4.712;2022-11-15T15:31:05;15.37;;;13.47;;
12363;SDS011;6246;50.826;4.712;2022-11-15T15:33:32;16.73;;;13.63;;
12363;SDS011;6246;50.826;4.712;2022-11-15T15:35:58;16.73;;;13.53;;
12363;SDS011;6246;50.826;4.712;2022-11-15T15:38:24;14.70;;;13.03;;
12363;SDS011;6246;50.826;4.712;2022-11-15T15:40:50;15.30;;;13.30;;
12363;SDS011;6246;50.826;4.712;2022-11-15T15:43:16;17.07;;;13.27;;
12363;SDS011;6246;50.826;4.712;2022-11-15T15:45:42;17.03;;;12.43;;
12363;SDS011;6246;50.826;4.712;2022-11-15T15:48:13;14.90;;;13.23;;
12363;SDS011;6246;50.826;4.712;2022-11-15T15:50:39;13.53;;;12.13;;
12363;SDS011;6246;50.826;4.712;2022-11-15T15:53:07;15.07;;;11.73;;
12363;SDS011;6246;50.826;4.712;2022-11-15T15:55:35;21.97;;;13.70;;
12363;SDS011;6246;50.826;4.712;2022-11-15T15:58:01;18.47;;;13.60;;
12363;SDS011;6246;50.826;4.712;2022-11-15T16:00:27;18.90;;;14.80;;
12363;SDS011;6246;50.826;4.712;2022-11-15T16:02:54;18.27;;;14.17;;
12363;SDS011;6246;50.826;4.712;2022-11-15T16:05:20;18.50;;;14.23;;
12363;SDS011;6246;50.826;4.712;2022-11-15T16:07:47;16.80;;;13.10;;
12363;SDS011;6246;50.826;4.712;2022-11-15T16:10:21;17.80;;;13.33;;
12363;SDS011;6246;50.826;4.712;2022-11-15T16:12:48;17.23;;;13.33;;
12363;SDS011;6246;50.826;4.712;2022-11-15T16:15:14;16.53;;;13.10;;
12363;SDS011;6246;50.826;4.712;2022-11-15T16:17:42;16.70;;;12.80;;
12363;SDS011;6246;50.826;4.712;2022-11-15T16:20:15;16.70;;;13.20;;
12363;SDS011;6246;50.826;4.712;2022-11-15T16:22:46;18.73;;;12.93;;
12363;SDS011;6246;50.826;4.712;2022-11-15T16:25:12;18.57;;;13.70;;
12363;SDS011;6246;50.826;4.712;2022-11-15T16:27:38;18.93;;;12.50;;
12363;SDS011;6246;50.826;4.712;2022-11-15T16:30:12;35.47;;;16.20;;
12363;SDS011;6246;50.826;4.712;2022-11-15T16:32:40;18.27;;;13.47;;
12363;SDS011;6246;50.826;4.712;2022-11-15T16:35:07;17.70;;;13.30;;
12363;SDS011;6246;50.826;4.712;2022-11-15T16:37:33;20.63;;;13.93;;
12363;SDS011;6246;50.826;4.712;2022-11-15T16:39:59;19.60;;;12.77;;
12363;SDS011;6246;50.826;4.712;2022-11-15T16:42:25;21.93;;;13.93;;
12363;SDS011;6246;50.826;4.712;2022-11-15T16:44:51;22.57;;;13.70;;
12363;SDS011;6246;50.826;4.712;2022-11-15T16:47:17;20.00;;;14.00;;
12363;SDS011;6246;50.826;4.712;2022-11-15T16:49:44;18.03;;;12.90;;
12363;SDS011;6246;50.826;4.712;2022-11-15T16:52:10;19.60;;;13.00;;
12363;SDS011;6246;50.826;4.712;2022-11-15T16:54:36;19.37;;;12.77;;
12363;SDS011;6246;50.826;4.712;2022-11-15T16:57:02;23.90;;;13.13;;
12363;SDS011;6246;50.826;4.712;2022-11-15T16:59:28;19.97;;;13.30;;
12363;SDS011;6246;50.826;4.712;2022-11-15T17:01:56;20.87;;;13.53;;